Nearby METAR Reports

 

K1A5 - Macon/Franklin, North Carolina, USA
Distance from station: WSW 16mi, 25km
Updated: Wed, 20-Jun-2018 10:05am EDT
NOT Current
Clear
Clear
 Wind from N
Wind: N 6 mph , 9 km/h
Temperature: 79°F , 26°C
Dew Point: 68°F , 20°C
Humidity: 70%
Barometer: 30.06 inHg , 1017.9 hPa
Clouds: Clear
Visibility: 10 miles , 16 km
2018/06/20 14:05 K1A5 201405Z AUTO 36005KT 10SM CLR 26/20 A3006 RMK AO2 T02550197
KAVL - Asheville, North Carolina, USA
Distance from station: ENE 36mi, 59km
Updated: Fri, 22-Jun-2018 3:54pm EDT
Clear
Clear
 Wind from S
Wind: S 16 mph , 26 km/h, Gust: 20 mph , 31 km/h
Temperature: 84°F , 29°C
Heat Index: 85°F , 29°C
Dew Point: 64°F , 18°C
Humidity: 51%
Barometer: 29.86 inHg , 1011.2 hPa
Clouds: Clear
Visibility: 10 miles , 16 km
2018/06/22 19:54 KAVL 221954Z AUTO 18014G17KT 10SM CLR 29/18 A2986 RMK AO2 SLP080 T02940178
 
KRHP - Andrews, North Carolina, USA
Distance from station: WSW 40mi, 64km
Updated: Fri, 22-Jun-2018 4:15pm EDT
Mostly cloudy
Mostly cloudy
 Wind from SSW
Wind: SSW 8 mph , 13 km/h
Temperature: 81°F , 27°C
Heat Index: 83°F , 28°C
Dew Point: 66°F , 19°C
Humidity: 62%
Barometer: 29.85 inHg , 1010.8 hPa
Clouds: Mostly cloudy
Visibility: 10 miles , 16 km
Cloud details: Mostly cloudy 5000 ft
Mostly cloudy 7500 ft
2018/06/22 20:15 KRHP 222015Z AUTO 21007KT 10SM BKN050 BKN075 27/19 A2985 RMK AO2 T02720185
KLQK - Pickens, South Carolina, USA
Distance from station: SE 42mi, 68km
Updated: Fri, 22-Jun-2018 4:15pm EDT
Partly cloudy
Partly cloudy
 Wind from SW
Wind: SW 15 mph , 24 km/h, Gust: 22 mph , 35 km/h
Temperature: 90°F , 32°C
Heat Index: 93°F , 34°C
Dew Point: 66°F , 19°C
Humidity: 46%
Barometer: 29.83 inHg , 1010.2 hPa
Clouds: Partly cloudy
Visibility: 10 miles , 16 km
Cloud details: Partly cloudy 5500 ft
2018/06/22 20:15 KLQK 222015Z AUTO 23013G19KT 10SM SCT055 32/19 A2983 RMK AO2 T03160186
 
KCEU - Clemson, South Carolina, USA
Distance from station: SSE 46mi, 75km
Updated: Fri, 22-Jun-2018 3:54pm EDT
Clear
Clear
 Wind from WSW
Wind: WSW 13 mph , 20 km/h, Gust: 22 mph , 35 km/h
Temperature: 88°F , 31°C
Heat Index: 89°F , 32°C
Dew Point: 63°F , 17°C
Humidity: 43%
Barometer: 29.84 inHg , 1010.5 hPa
Clouds: Clear
Visibility: 10 miles , 16 km
2018/06/22 19:54 KCEU 221954Z AUTO 24011G19KT 10SM CLR 31/17 A2984 RMK AO2 SLP092 T03060167
KTOC - Toccoa, Georgia, USA
Distance from station: S 49mi, 79km
Updated: Fri, 22-Jun-2018 4:15pm EDT
Partly cloudy
Partly cloudy
 Wind from WSW
Wind: WSW 12 mph , 19 km/h, Gust: 22 mph , 35 km/h
Temperature: 93°F , 34°C
Dew Point: 64°F , 18°C
Humidity: 39%
Barometer: 29.84 inHg , 1010.5 hPa
Clouds: Partly cloudy
Visibility: 10 miles , 16 km
Cloud details: Partly cloudy 6000 ft
2018/06/22 20:15 KTOC 222015Z AUTO 25010G19KT 10SM SCT060 34/18 A2984 RMK AO2 T03390180